createdAt,value
2018-07-13T00:02:21.946Z,5.50
2018-07-13T00:04:50.701Z,5.77
2018-07-13T00:07:19.241Z,6.10
2018-07-13T00:09:47.968Z,5.63
2018-07-13T00:12:16.502Z,5.53
2018-07-13T00:14:56.944Z,5.37
2018-07-13T00:17:25.493Z,5.97
2018-07-13T00:19:54.188Z,5.93
2018-07-13T00:22:22.699Z,6.20
2018-07-13T00:24:51.357Z,6.20
2018-07-13T00:27:19.907Z,6.30
2018-07-13T00:29:48.737Z,6.00
2018-07-13T00:32:17.249Z,6.43
2018-07-13T00:34:45.876Z,5.97
2018-07-13T00:37:14.400Z,6.23
2018-07-13T00:39:42.983Z,6.80
2018-07-13T00:42:11.481Z,7.10
2018-07-13T00:44:40.161Z,6.80
2018-07-13T00:47:08.702Z,7.03
2018-07-13T00:49:37.416Z,7.20
2018-07-13T00:52:05.611Z,7.60
2018-07-13T00:54:34.091Z,7.90
2018-07-13T00:57:02.620Z,7.90
2018-07-13T00:59:31.139Z,8.03
2018-07-13T01:01:59.981Z,8.57
2018-07-13T01:04:28.534Z,8.43
2018-07-13T01:06:57.244Z,7.57
2018-07-13T01:09:25.786Z,8.10
2018-07-13T01:11:54.636Z,8.43
2018-07-13T01:14:23.183Z,7.67
2018-07-13T01:16:51.702Z,8.17
2018-07-13T01:19:20.250Z,8.50
2018-07-13T01:21:48.986Z,8.37
2018-07-13T01:24:17.573Z,8.33
2018-07-13T01:26:46.357Z,8.43
2018-07-13T01:29:14.896Z,8.67
2018-07-13T01:31:43.634Z,9.67
2018-07-13T01:34:12.169Z,8.60
2018-07-13T01:36:40.854Z,9.40
2018-07-13T01:39:11.347Z,9.17
2018-07-13T01:41:40.127Z,8.87
2018-07-13T01:44:08.667Z,7.20
2018-07-13T01:46:37.330Z,6.30
2018-07-13T01:49:06.013Z,5.80
2018-07-13T01:51:34.799Z,5.60
2018-07-13T01:54:03.443Z,5.20
2018-07-13T01:56:32.172Z,5.03
2018-07-13T01:59:00.704Z,5.70
2018-07-13T02:01:29.283Z,5.67
2018-07-13T02:03:57.889Z,6.47
2018-07-13T02:06:26.626Z,6.27
2018-07-13T02:08:55.157Z,6.43
2018-07-13T02:11:23.916Z,6.93
2018-07-13T02:13:52.544Z,6.50
2018-07-13T02:16:21.276Z,6.33
2018-07-13T02:18:49.825Z,6.47
2018-07-13T02:21:18.401Z,6.30
2018-07-13T02:23:46.947Z,6.47
2018-07-13T02:26:15.556Z,6.40
2018-07-13T02:28:44.130Z,7.00
2018-07-13T02:31:13.011Z,7.10
2018-07-13T02:33:41.575Z,8.10
2018-07-13T02:36:10.165Z,8.50
2018-07-13T02:38:38.759Z,8.63
2018-07-13T02:41:07.676Z,8.20
2018-07-13T02:43:36.327Z,9.00
2018-07-13T02:46:04.858Z,10.70
2018-07-13T02:48:33.464Z,9.53
2018-07-13T02:51:02.438Z,10.97
2018-07-13T02:53:31.086Z,10.77
2018-07-13T02:55:59.902Z,13.13
2018-07-13T02:58:28.530Z,13.47
2018-07-13T03:00:57.310Z,14.67
2018-07-13T03:03:25.894Z,14.93
2018-07-13T03:05:54.666Z,15.07
2018-07-13T03:08:23.439Z,15.70
2018-07-13T03:10:52.206Z,15.70
2018-07-13T03:13:20.994Z,15.80
2018-07-13T03:15:49.975Z,14.13
2018-07-13T03:18:18.741Z,14.67
2018-07-13T03:20:47.753Z,13.07
2018-07-13T03:23:16.484Z,13.50
2018-07-13T03:25:44.983Z,14.27
2018-07-13T03:28:13.804Z,13.33
2018-07-13T03:30:43.046Z,12.33
2018-07-13T03:33:11.829Z,13.00
2018-07-13T03:35:40.849Z,14.27
2018-07-13T03:38:09.618Z,13.77
2018-07-13T03:40:38.141Z,14.93
2018-07-13T03:43:06.894Z,15.37
2018-07-13T03:45:35.779Z,17.93
2018-07-13T03:48:04.680Z,19.03
2018-07-13T03:50:33.677Z,20.17
2018-07-13T03:53:02.366Z,20.33
2018-07-13T03:55:31.242Z,20.43
2018-07-13T03:57:59.950Z,21.47
2018-07-13T04:00:28.827Z,20.50
2018-07-13T04:02:57.584Z,20.73
2018-07-13T04:05:26.525Z,20.00
2018-07-13T04:07:55.215Z,21.53
2018-07-13T04:10:24.083Z,20.20
2018-07-13T04:12:52.837Z,19.70
2018-07-13T04:15:21.761Z,19.97
2018-07-13T04:17:50.485Z,19.30
2018-07-13T04:20:19.137Z,19.03
2018-07-13T04:22:48.021Z,20.07
2018-07-13T04:25:16.697Z,17.43
2018-07-13T04:27:46.075Z,21.43
2018-07-13T04:30:14.747Z,21.57
2018-07-13T04:32:43.455Z,23.27
2018-07-13T04:35:12.132Z,23.73
2018-07-13T04:37:40.876Z,25.13
2018-07-13T04:40:09.725Z,24.53
2018-07-13T04:42:38.399Z,22.20
2018-07-13T04:45:07.357Z,23.73
2018-07-13T04:47:35.998Z,23.03
2018-07-13T04:50:04.918Z,24.20
2018-07-13T04:52:33.467Z,22.83
2018-07-13T04:55:02.119Z,20.17
2018-07-13T04:57:30.838Z,21.60
2018-07-13T04:59:59.725Z,21.60
2018-07-13T05:02:28.447Z,21.77
2018-07-13T05:04:57.096Z,23.40
2018-07-13T05:07:25.704Z,22.20
2018-07-13T05:09:54.627Z,23.27
2018-07-13T05:12:23.348Z,23.63
2018-07-13T05:14:52.153Z,23.60
2018-07-13T05:17:20.719Z,21.73
2018-07-13T05:19:49.342Z,25.53
2018-07-13T05:22:17.900Z,24.40
2018-07-13T05:24:46.313Z,24.50
2018-07-13T05:27:14.877Z,24.80
2018-07-13T05:29:43.587Z,26.17
2018-07-13T05:32:12.191Z,27.67
2018-07-13T05:34:41.048Z,27.17
2018-07-13T05:37:09.695Z,26.20
2018-07-13T05:39:38.445Z,26.80
2018-07-13T05:42:07.263Z,25.80
2018-07-13T05:44:36.076Z,25.70
2018-07-13T05:47:04.663Z,25.33
2018-07-13T05:49:33.435Z,24.90
2018-07-13T05:52:02.001Z,27.13
2018-07-13T05:54:30.899Z,27.60
2018-07-13T05:56:59.477Z,26.17
2018-07-13T05:59:28.277Z,26.37
2018-07-13T06:01:56.867Z,25.47
2018-07-13T06:04:25.536Z,26.57
2018-07-13T06:06:54.113Z,25.73
2018-07-13T06:09:22.937Z,24.90
2018-07-13T06:11:51.556Z,25.53
2018-07-13T06:14:20.306Z,24.37
2018-07-13T06:16:48.846Z,25.73
2018-07-13T06:19:17.629Z,25.40
2018-07-13T06:21:46.236Z,26.33
2018-07-13T06:24:15.066Z,25.70
2018-07-13T06:26:43.581Z,23.63
2018-07-13T06:29:12.335Z,22.27
2018-07-13T06:31:40.941Z,23.73
2018-07-13T06:34:09.539Z,24.00
2018-07-13T06:36:38.106Z,24.43
2018-07-13T06:39:08.898Z,22.77
2018-07-13T06:41:37.484Z,23.27
2018-07-13T06:44:06.443Z,23.30
2018-07-13T06:46:34.965Z,24.03
2018-07-13T06:49:03.853Z,22.50
2018-07-13T06:51:32.741Z,23.20
2018-07-13T06:54:01.332Z,23.77
2018-07-13T06:56:29.931Z,23.20
2018-07-13T06:59:08.123Z,22.27
2018-07-13T07:01:36.667Z,21.57
2018-07-13T07:04:23.145Z,23.07
2018-07-13T07:06:51.735Z,23.63
2018-07-13T07:09:20.656Z,22.10
2018-07-13T07:12:00.410Z,23.40
2018-07-13T07:14:29.187Z,21.90
2018-07-13T07:16:57.781Z,21.20
2018-07-13T07:19:26.532Z,19.83
2018-07-13T07:21:54.740Z,19.40
2018-07-13T07:24:23.401Z,16.60
2018-07-13T07:26:52.021Z,18.50
2018-07-13T07:29:20.659Z,17.33
2018-07-13T07:31:49.233Z,17.87
2018-07-13T07:34:17.823Z,16.83
2018-07-13T07:36:46.534Z,17.40
2018-07-13T07:39:15.264Z,15.53
2018-07-13T07:41:43.838Z,15.63
2018-07-13T07:44:12.591Z,15.00
2018-07-13T07:46:41.181Z,14.07
2018-07-13T07:49:09.912Z,12.87
2018-07-13T07:51:38.516Z,14.17
2018-07-13T07:54:07.607Z,15.27
2018-07-13T07:56:36.212Z,14.87
2018-07-13T07:59:05.194Z,14.80
2018-07-13T08:01:33.817Z,14.00
2018-07-13T08:04:02.644Z,14.30
2018-07-13T08:06:31.328Z,12.63
2018-07-13T08:09:00.077Z,12.10
2018-07-13T08:11:28.684Z,12.97
2018-07-13T08:13:57.650Z,11.40
2018-07-13T08:16:26.152Z,11.10
2018-07-13T08:18:55.062Z,9.93
2018-07-13T08:21:23.765Z,10.27
2018-07-13T08:23:53.150Z,9.97
2018-07-13T08:26:21.736Z,10.60
2018-07-13T08:28:51.310Z,10.60
2018-07-13T08:31:19.870Z,11.30
2018-07-13T08:33:48.507Z,10.73
2018-07-13T08:36:17.054Z,9.87
2018-07-13T08:38:45.613Z,10.63
2018-07-13T08:41:14.135Z,9.57
2018-07-13T08:43:42.815Z,9.27
2018-07-13T08:46:11.369Z,8.40
2018-07-13T08:48:40.127Z,7.17
2018-07-13T08:51:08.635Z,8.50
2018-07-13T08:53:37.376Z,7.63
2018-07-13T08:56:05.980Z,8.00
2018-07-13T08:58:34.762Z,7.67
2018-07-13T09:01:03.368Z,6.47
2018-07-13T09:03:32.137Z,6.23
2018-07-13T09:06:00.706Z,6.77
2018-07-13T09:08:29.636Z,6.50
2018-07-13T09:10:58.185Z,6.67
2018-07-13T09:13:27.139Z,7.40
2018-07-13T09:15:55.672Z,6.60
2018-07-13T09:18:24.431Z,6.67
2018-07-13T09:20:52.920Z,6.10
2018-07-13T09:23:21.805Z,7.73
2018-07-13T09:25:50.407Z,7.97
2018-07-13T09:28:19.235Z,6.87
2018-07-13T09:30:47.779Z,6.53
2018-07-13T09:33:16.357Z,6.10
2018-07-13T09:35:44.942Z,5.80
2018-07-13T09:38:13.880Z,6.17
2018-07-13T09:40:42.430Z,6.13
2018-07-13T09:43:11.363Z,5.90
2018-07-13T09:45:39.969Z,6.33
2018-07-13T09:48:09.011Z,6.27
2018-07-13T09:50:37.637Z,5.57
2018-07-13T09:53:06.062Z,5.20
2018-07-13T09:55:34.818Z,5.87
2018-07-13T09:58:03.477Z,5.60
2018-07-13T10:00:37.558Z,5.80
2018-07-13T10:03:06.331Z,5.57
2018-07-13T10:05:34.997Z,6.37
2018-07-13T10:08:03.782Z,6.53
2018-07-13T10:10:32.493Z,6.20
2018-07-13T10:13:01.447Z,5.30
2018-07-13T10:15:29.998Z,5.00
2018-07-13T10:17:58.807Z,7.43
2018-07-13T10:20:27.526Z,6.97
2018-07-13T10:22:56.213Z,6.00
2018-07-13T10:25:28.596Z,5.83
2018-07-13T10:27:57.618Z,5.43
2018-07-13T10:30:26.292Z,6.00
2018-07-13T10:32:54.853Z,5.37
2018-07-13T10:35:23.441Z,4.67
2018-07-13T10:37:52.302Z,4.67
2018-07-13T10:40:20.984Z,5.20
2018-07-13T10:42:49.759Z,4.90
2018-07-13T10:45:18.410Z,4.60
2018-07-13T10:47:47.200Z,5.00
2018-07-13T10:50:15.765Z,4.27
2018-07-13T10:52:44.610Z,4.47
2018-07-13T10:55:13.221Z,4.67
2018-07-13T10:57:41.795Z,4.37
2018-07-13T11:00:10.304Z,4.43
2018-07-13T11:02:39.077Z,4.67
2018-07-13T11:05:07.609Z,4.27
2018-07-13T11:07:36.239Z,3.97
2018-07-13T11:10:05.097Z,4.50
2018-07-13T11:12:33.837Z,4.67
2018-07-13T11:15:02.468Z,4.83
2018-07-13T11:17:30.769Z,4.43
2018-07-13T11:19:59.520Z,4.47
2018-07-13T11:22:28.296Z,4.07
2018-07-13T11:24:56.825Z,4.20
2018-07-13T11:27:25.789Z,3.83
2018-07-13T11:29:54.410Z,3.90
2018-07-13T11:32:23.085Z,3.67
2018-07-13T11:34:51.677Z,3.27
2018-07-13T11:37:20.393Z,3.63
2018-07-13T11:39:48.967Z,3.90
2018-07-13T11:42:17.705Z,3.87
2018-07-13T11:44:46.356Z,3.70
2018-07-13T11:47:14.912Z,3.53
2018-07-13T11:49:43.554Z,4.13
2018-07-13T11:52:12.281Z,3.30
2018-07-13T11:54:40.901Z,3.40
2018-07-13T11:57:09.575Z,3.90
2018-07-13T11:59:38.223Z,3.83
2018-07-13T12:02:07.015Z,3.47
2018-07-13T12:04:35.583Z,3.37
2018-07-13T12:07:04.451Z,3.20
2018-07-13T12:09:33.347Z,3.80
2018-07-13T12:12:02.197Z,3.27
2018-07-13T12:14:31.024Z,3.50
2018-07-13T12:17:00.067Z,3.00
2018-07-13T12:19:29.040Z,2.70
2018-07-13T12:21:57.885Z,2.60
2018-07-13T12:24:26.582Z,2.80
2018-07-13T12:26:55.227Z,2.60
2018-07-13T12:29:23.743Z,2.90
2018-07-13T12:31:52.338Z,2.90
2018-07-13T12:34:20.892Z,2.47
2018-07-13T12:36:49.607Z,2.60
2018-07-13T12:39:18.176Z,2.93
2018-07-13T12:41:47.888Z,2.60
2018-07-13T12:44:16.541Z,2.83
2018-07-13T12:46:45.402Z,2.87
2018-07-13T12:49:14.528Z,2.90
2018-07-13T12:51:43.589Z,3.00
2018-07-13T12:54:12.271Z,3.33
2018-07-13T12:56:41.901Z,2.93
2018-07-13T12:59:10.491Z,2.93
2018-07-13T13:01:39.070Z,3.20
2018-07-13T13:04:07.682Z,2.90
2018-07-13T13:06:36.442Z,2.53
2018-07-13T13:09:05.536Z,3.00
2018-07-13T13:11:34.137Z,3.03
2018-07-13T13:14:02.787Z,2.90
2018-07-13T13:16:31.378Z,2.63
2018-07-13T13:18:59.951Z,2.80
2018-07-13T13:21:28.797Z,2.80
2018-07-13T13:23:57.243Z,3.10
2018-07-13T13:26:26.067Z,2.63
2018-07-13T13:28:54.643Z,3.10
2018-07-13T13:31:23.224Z,2.60
2018-07-13T13:33:51.829Z,2.50
2018-07-13T13:36:20.924Z,2.80
2018-07-13T13:38:49.514Z,2.40
2018-07-13T13:41:18.279Z,2.93
2018-07-13T13:43:46.809Z,2.93
2018-07-13T13:46:15.583Z,2.43
2018-07-13T13:48:44.071Z,2.50
2018-07-13T13:51:12.782Z,2.40
2018-07-13T13:53:41.387Z,2.53
2018-07-13T13:56:10.119Z,2.20
2018-07-13T13:58:38.715Z,2.80
2018-07-13T14:01:07.700Z,2.37
2018-07-13T14:03:36.422Z,2.70
2018-07-13T14:06:04.951Z,2.40
2018-07-13T14:08:33.530Z,2.70
2018-07-13T14:11:02.256Z,2.70
2018-07-13T14:13:30.779Z,2.37
2018-07-13T14:15:59.845Z,2.60
2018-07-13T14:18:28.377Z,2.40
2018-07-13T14:20:57.078Z,2.50
2018-07-13T14:23:25.575Z,2.37
2018-07-13T14:25:54.318Z,2.40
2018-07-13T14:28:23.049Z,3.10
2018-07-13T14:30:51.560Z,2.50
2018-07-13T14:33:20.072Z,2.30
2018-07-13T14:35:48.944Z,2.40
2018-07-13T14:38:17.502Z,2.33
2018-07-13T14:40:46.180Z,2.60
2018-07-13T14:43:14.780Z,2.40
2018-07-13T14:45:43.455Z,2.37
2018-07-13T14:48:12.021Z,2.70
2018-07-13T14:50:40.779Z,2.23
2018-07-13T14:53:09.323Z,2.90
2018-07-13T14:55:38.047Z,2.60
2018-07-13T14:58:06.634Z,2.57
2018-07-13T15:00:35.445Z,2.40
2018-07-13T15:03:03.954Z,2.60
2018-07-13T15:05:32.523Z,2.70
2018-07-13T15:08:01.180Z,2.80
2018-07-13T15:10:29.855Z,2.70
2018-07-13T15:12:58.498Z,2.43
2018-07-13T15:15:27.303Z,2.90
2018-07-13T15:17:55.982Z,3.10
2018-07-13T15:20:24.778Z,3.17
2018-07-13T15:22:53.406Z,2.90
2018-07-13T15:25:22.248Z,2.87
2018-07-13T15:27:50.799Z,3.67
2018-07-13T15:30:19.775Z,3.30
2018-07-13T15:32:48.430Z,3.50
2018-07-13T15:35:17.185Z,3.37
2018-07-13T15:37:45.826Z,3.70
2018-07-13T15:40:14.548Z,3.73
2018-07-13T15:42:43.184Z,3.47
2018-07-13T15:45:11.797Z,3.53
2018-07-13T15:47:40.445Z,3.30
2018-07-13T15:50:09.105Z,3.13
2018-07-13T15:52:37.716Z,2.93
2018-07-13T15:55:06.368Z,2.90
2018-07-13T15:57:35.211Z,3.03
2018-07-13T16:00:03.807Z,2.67
2018-07-13T16:02:32.395Z,2.67
2018-07-13T16:05:01.180Z,3.10
2018-07-13T16:07:29.784Z,2.63
2018-07-13T16:09:58.666Z,3.03
2018-07-13T16:12:27.305Z,3.13
2018-07-13T16:14:56.070Z,3.00
2018-07-13T16:17:24.712Z,3.07
2018-07-13T16:19:53.213Z,2.83
2018-07-13T16:22:21.852Z,2.20
2018-07-13T16:24:50.584Z,2.50
2018-07-13T16:27:19.136Z,2.30
2018-07-13T16:29:47.954Z,2.30
2018-07-13T16:32:16.500Z,2.40
2018-07-13T16:34:45.384Z,2.60
2018-07-13T16:37:13.908Z,2.47
2018-07-13T16:39:42.753Z,2.57
2018-07-13T16:42:11.338Z,2.73
2018-07-13T16:44:40.127Z,3.10
2018-07-13T16:47:08.825Z,2.93
2018-07-13T16:49:37.583Z,3.10
2018-07-13T16:52:06.200Z,3.00
2018-07-13T16:54:34.822Z,2.97
2018-07-13T16:57:03.392Z,3.03
2018-07-13T16:59:32.063Z,2.97
2018-07-13T17:02:00.636Z,3.07
2018-07-13T17:04:29.419Z,3.20
2018-07-13T17:06:58.371Z,2.80
2018-07-13T17:09:27.238Z,3.70
2018-07-13T17:11:56.254Z,3.50
2018-07-13T17:14:25.147Z,3.57
2018-07-13T17:16:53.813Z,3.30
2018-07-13T17:19:23.689Z,3.20
2018-07-13T17:21:52.534Z,3.77
2018-07-13T17:24:21.458Z,3.53
2018-07-13T17:26:50.144Z,3.77
2018-07-13T17:29:18.711Z,6.13
2018-07-13T17:31:47.422Z,4.43
2018-07-13T17:34:16.157Z,4.43
2018-07-13T17:36:44.917Z,5.57
2018-07-13T17:39:14.034Z,4.40
2018-07-13T17:41:42.683Z,4.17
2018-07-13T17:44:11.541Z,4.37
2018-07-13T17:46:40.126Z,4.00
2018-07-13T17:49:09.072Z,3.20
2018-07-13T17:51:37.664Z,3.50
2018-07-13T17:54:06.499Z,3.77
2018-07-13T17:56:35.353Z,3.30
2018-07-13T17:59:04.219Z,3.07
2018-07-13T18:01:33.107Z,3.60
2018-07-13T18:04:01.949Z,3.80
2018-07-13T18:06:30.816Z,3.60
2018-07-13T18:09:00.048Z,3.57
2018-07-13T18:11:28.731Z,5.30
2018-07-13T18:13:57.424Z,3.93
2018-07-13T18:16:26.056Z,4.27
2018-07-13T18:18:54.958Z,4.17
2018-07-13T18:21:23.834Z,4.17
2018-07-13T18:23:52.598Z,4.50
2018-07-13T18:26:21.263Z,4.40
2018-07-13T18:28:49.912Z,4.17
2018-07-13T18:31:18.814Z,5.23
2018-07-13T18:33:47.588Z,4.67
2018-07-13T18:36:16.230Z,4.67
2018-07-13T18:38:44.841Z,4.80
2018-07-13T18:41:14.377Z,4.77
2018-07-13T18:43:43.685Z,4.83
2018-07-13T18:46:13.098Z,5.03
2018-07-13T18:48:42.205Z,5.40
2018-07-13T18:51:11.289Z,5.13
2018-07-13T18:53:40.153Z,5.50
2018-07-13T18:56:08.946Z,5.00
2018-07-13T18:58:37.883Z,5.07
2018-07-13T19:01:07.074Z,4.63
2018-07-13T19:03:36.482Z,4.30
2018-07-13T19:06:05.501Z,4.30
2018-07-13T19:08:34.338Z,4.97
2018-07-13T19:11:02.981Z,4.40
2018-07-13T19:13:31.901Z,4.80
2018-07-13T19:16:00.513Z,5.10
2018-07-13T19:18:29.563Z,4.50
2018-07-13T19:20:58.293Z,4.70
2018-07-13T19:23:26.998Z,5.50
2018-07-13T19:25:55.652Z,5.60
2018-07-13T19:28:24.303Z,5.50
2018-07-13T19:30:52.991Z,5.53
2018-07-13T19:33:22.091Z,5.83
2018-07-13T19:35:50.757Z,6.03
2018-07-13T19:38:19.562Z,5.50
2018-07-13T19:40:48.355Z,6.23
2018-07-13T19:43:17.348Z,6.20
2018-07-13T19:45:46.296Z,6.37
2018-07-13T19:48:15.016Z,6.10
2018-07-13T19:50:43.516Z,6.87
2018-07-13T19:53:12.304Z,7.43
2018-07-13T19:55:40.933Z,8.30
2018-07-13T19:58:09.613Z,6.33
2018-07-13T20:00:38.214Z,6.43
2018-07-13T20:03:07.133Z,5.80
2018-07-13T20:05:35.721Z,5.40
2018-07-13T20:08:04.531Z,5.73
2018-07-13T20:10:32.765Z,6.30
2018-07-13T20:13:01.510Z,6.30
2018-07-13T20:15:30.243Z,5.63
2018-07-13T20:17:59.024Z,6.10
2018-07-13T20:20:27.717Z,6.77
2018-07-13T20:22:56.497Z,6.70
2018-07-13T20:25:25.122Z,7.03
2018-07-13T20:27:53.905Z,6.67
2018-07-13T20:30:22.595Z,7.43
2018-07-13T20:32:51.421Z,6.70
2018-07-13T20:35:20.081Z,7.00
2018-07-13T20:37:48.717Z,7.43
2018-07-13T20:40:17.249Z,7.50
2018-07-13T20:42:46.218Z,6.37
2018-07-13T20:45:14.831Z,7.73
2018-07-13T20:47:43.848Z,7.50
2018-07-13T20:50:12.331Z,8.00
2018-07-13T20:52:41.193Z,7.97
2018-07-13T20:55:09.788Z,7.93
2018-07-13T20:57:38.658Z,8.03
2018-07-13T21:00:07.583Z,8.47
2018-07-13T21:02:36.443Z,8.40
2018-07-13T21:05:04.975Z,8.70
2018-07-13T21:07:33.704Z,8.43
2018-07-13T21:10:02.304Z,8.27
2018-07-13T21:12:31.187Z,8.53
2018-07-13T21:14:59.858Z,8.63
2018-07-13T21:17:28.706Z,9.13
2018-07-13T21:19:57.380Z,8.73
2018-07-13T21:22:26.285Z,8.93
2018-07-13T21:24:54.875Z,9.00
2018-07-13T21:27:23.688Z,8.93
2018-07-13T21:29:52.212Z,9.47
2018-07-13T21:32:21.018Z,10.17
2018-07-13T21:34:49.836Z,9.50
2018-07-13T21:37:18.473Z,9.20
2018-07-13T21:39:47.059Z,10.40
2018-07-13T21:42:15.885Z,10.20
2018-07-13T21:44:44.545Z,10.30
2018-07-13T21:47:13.363Z,10.03
2018-07-13T21:49:41.898Z,10.30
2018-07-13T21:52:10.610Z,11.17
2018-07-13T21:54:39.236Z,11.23
2018-07-13T21:57:08.033Z,11.50
2018-07-13T21:59:36.625Z,10.90
2018-07-13T22:02:05.404Z,10.87
2018-07-13T22:04:34.110Z,11.30
2018-07-13T22:07:02.800Z,11.10
2018-07-13T22:09:31.497Z,11.70
2018-07-13T22:12:00.259Z,11.83
2018-07-13T22:14:28.784Z,11.50
2018-07-13T22:16:57.396Z,12.10
2018-07-13T22:19:26.043Z,12.50
2018-07-13T22:21:54.932Z,11.73
2018-07-13T22:24:23.495Z,11.93
2018-07-13T22:26:52.299Z,12.40
2018-07-13T22:29:21.000Z,10.87
2018-07-13T22:31:49.613Z,12.17
2018-07-13T22:34:18.370Z,11.37
2018-07-13T22:36:47.273Z,12.37
2018-07-13T22:39:16.101Z,12.10
2018-07-13T22:41:44.856Z,11.63
2018-07-13T22:44:13.503Z,12.07
2018-07-13T22:46:42.321Z,11.30
2018-07-13T22:49:10.823Z,11.53
2018-07-13T22:51:39.713Z,11.43
2018-07-13T22:54:08.498Z,11.63
2018-07-13T22:56:37.388Z,11.37
2018-07-13T22:59:06.085Z,10.03
2018-07-13T23:01:34.878Z,10.83
2018-07-13T23:04:03.483Z,10.93
2018-07-13T23:06:32.373Z,9.83
2018-07-13T23:09:01.058Z,10.50
2018-07-13T23:11:29.699Z,8.33
2018-07-13T23:13:58.414Z,9.50
2018-07-13T23:16:26.961Z,8.67
2018-07-13T23:18:55.558Z,9.50
2018-07-13T23:21:24.293Z,9.73
2018-07-13T23:23:52.950Z,9.00
2018-07-13T23:26:21.767Z,9.37
2018-07-13T23:28:50.308Z,8.73
2018-07-13T23:31:19.049Z,8.47
2018-07-13T23:33:47.978Z,8.83
2018-07-13T23:36:16.730Z,8.53
2018-07-13T23:38:45.477Z,8.97
2018-07-13T23:41:14.202Z,8.17
2018-07-13T23:43:42.851Z,8.80
2018-07-13T23:46:11.569Z,8.90
2018-07-13T23:48:39.747Z,9.57
2018-07-13T23:51:08.450Z,9.60
2018-07-13T23:53:36.940Z,8.90
2018-07-13T23:56:05.744Z,8.77
2018-07-13T23:58:34.284Z,8.60
